sensor_id;sensor_type;location;lat;lon;timestamp;P1;durP1;ratioP1;P2;durP2;ratioP2
9496;SDS011;4786;51.270;4.456;2023-03-01T00:01:31;9.93;;;8.60;;
9496;SDS011;4786;51.270;4.456;2023-03-01T00:03:58;9.17;;;8.27;;
9496;SDS011;4786;51.270;4.456;2023-03-01T00:06:24;13.43;;;9.20;;
9496;SDS011;4786;51.270;4.456;2023-03-01T00:08:51;9.40;;;8.20;;
9496;SDS011;4786;51.270;4.456;2023-03-01T00:11:19;9.70;;;8.67;;
9496;SDS011;4786;51.270;4.456;2023-03-01T00:13:53;9.53;;;8.63;;
9496;SDS011;4786;51.270;4.456;2023-03-01T00:16:26;8.87;;;8.00;;
9496;SDS011;4786;51.270;4.456;2023-03-01T00:18:55;10.73;;;9.07;;
9496;SDS011;4786;51.270;4.456;2023-03-01T00:21:22;9.83;;;8.73;;
9496;SDS011;4786;51.270;4.456;2023-03-01T00:23:49;10.23;;;9.03;;
9496;SDS011;4786;51.270;4.456;2023-03-01T00:26:16;11.03;;;9.10;;
9496;SDS011;4786;51.270;4.456;2023-03-01T00:28:43;9.60;;;8.43;;
9496;SDS011;4786;51.270;4.456;2023-03-01T00:31:11;10.17;;;9.17;;
9496;SDS011;4786;51.270;4.456;2023-03-01T00:33:38;9.13;;;8.20;;
9496;SDS011;4786;51.270;4.456;2023-03-01T00:36:05;10.97;;;8.20;;
9496;SDS011;4786;51.270;4.456;2023-03-01T00:38:38;9.97;;;8.97;;
9496;SDS011;4786;51.270;4.456;2023-03-01T00:41:07;8.80;;;7.90;;
9496;SDS011;4786;51.270;4.456;2023-03-01T00:43:35;9.77;;;8.77;;
9496;SDS011;4786;51.270;4.456;2023-03-01T00:46:04;8.97;;;8.07;;
9496;SDS011;4786;51.270;4.456;2023-03-01T00:48:32;9.40;;;8.40;;
9496;SDS011;4786;51.270;4.456;2023-03-01T00:51:08;10.07;;;9.03;;
9496;SDS011;4786;51.270;4.456;2023-03-01T00:53:42;8.80;;;7.67;;
9496;SDS011;4786;51.270;4.456;2023-03-01T00:56:09;9.73;;;8.40;;
9496;SDS011;4786;51.270;4.456;2023-03-01T00:58:36;10.07;;;8.97;;
9496;SDS011;4786;51.270;4.456;2023-03-01T01:01:10;10.93;;;9.20;;
9496;SDS011;4786;51.270;4.456;2023-03-01T01:03:42;8.67;;;7.77;;
9496;SDS011;4786;51.270;4.456;2023-03-01T01:07:00;9.53;;;8.43;;
9496;SDS011;4786;51.270;4.456;2023-03-01T01:09:09;8.83;;;7.93;;
9496;SDS011;4786;51.270;4.456;2023-03-01T01:11:42;10.23;;;8.20;;
9496;SDS011;4786;51.270;4.456;2023-03-01T01:14:08;9.37;;;8.17;;
9496;SDS011;4786;51.270;4.456;2023-03-01T01:16:35;9.23;;;8.33;;
9496;SDS011;4786;51.270;4.456;2023-03-01T01:19:01;9.63;;;7.87;;
9496;SDS011;4786;51.270;4.456;2023-03-01T01:21:27;9.90;;;8.33;;
9496;SDS011;4786;51.270;4.456;2023-03-01T01:23:54;8.93;;;8.03;;
9496;SDS011;4786;51.270;4.456;2023-03-01T01:28:51;10.33;;;8.23;;
9496;SDS011;4786;51.270;4.456;2023-03-01T01:31:18;8.93;;;7.87;;
9496;SDS011;4786;51.270;4.456;2023-03-01T01:33:46;8.53;;;7.63;;
9496;SDS011;4786;51.270;4.456;2023-03-01T01:36:12;9.43;;;8.43;;
9496;SDS011;4786;51.270;4.456;2023-03-01T01:38:38;9.63;;;8.00;;
9496;SDS011;4786;51.270;4.456;2023-03-01T01:41:04;8.77;;;7.87;;
9496;SDS011;4786;51.270;4.456;2023-03-01T01:43:31;10.83;;;8.53;;
9496;SDS011;4786;51.270;4.456;2023-03-01T01:46:04;8.73;;;7.83;;
9496;SDS011;4786;51.270;4.456;2023-03-01T01:48:52;8.50;;;7.70;;
9496;SDS011;4786;51.270;4.456;2023-03-01T01:51:24;8.73;;;7.93;;
9496;SDS011;4786;51.270;4.456;2023-03-01T01:54:03;9.10;;;8.17;;
9496;SDS011;4786;51.270;4.456;2023-03-01T01:56:37;8.80;;;7.90;;
9496;SDS011;4786;51.270;4.456;2023-03-01T01:59:07;8.37;;;7.50;;
9496;SDS011;4786;51.270;4.456;2023-03-01T02:01:34;9.33;;;7.93;;
9496;SDS011;4786;51.270;4.456;2023-03-01T02:04:00;8.97;;;7.97;;
9496;SDS011;4786;51.270;4.456;2023-03-01T02:06:27;8.80;;;7.90;;
9496;SDS011;4786;51.270;4.456;2023-03-01T02:08:59;9.07;;;8.13;;
9496;SDS011;4786;51.270;4.456;2023-03-01T02:11:29;9.70;;;7.93;;
9496;SDS011;4786;51.270;4.456;2023-03-01T02:13:58;8.83;;;7.73;;
9496;SDS011;4786;51.270;4.456;2023-03-01T02:16:23;10.30;;;8.47;;
9496;SDS011;4786;51.270;4.456;2023-03-01T02:18:51;9.00;;;7.97;;
9496;SDS011;4786;51.270;4.456;2023-03-01T02:23:56;9.43;;;8.43;;
9496;SDS011;4786;51.270;4.456;2023-03-01T02:26:40;9.30;;;7.93;;
9496;SDS011;4786;51.270;4.456;2023-03-01T02:29:10;8.17;;;7.37;;
9496;SDS011;4786;51.270;4.456;2023-03-01T02:31:36;10.37;;;8.60;;
9496;SDS011;4786;51.270;4.456;2023-03-01T02:34:18;9.60;;;8.00;;
9496;SDS011;4786;51.270;4.456;2023-03-01T02:36:49;9.77;;;8.20;;
9496;SDS011;4786;51.270;4.456;2023-03-01T02:39:22;10.80;;;8.63;;
9496;SDS011;4786;51.270;4.456;2023-03-01T02:41:52;10.20;;;8.20;;
9496;SDS011;4786;51.270;4.456;2023-03-01T02:44:21;9.53;;;8.53;;
9496;SDS011;4786;51.270;4.456;2023-03-01T02:46:49;9.53;;;8.23;;
9496;SDS011;4786;51.270;4.456;2023-03-01T02:49:25;9.53;;;8.43;;
9496;SDS011;4786;51.270;4.456;2023-03-01T02:57:40;9.20;;;8.27;;
9496;SDS011;4786;51.270;4.456;2023-03-01T03:00:12;10.50;;;8.87;;
9496;SDS011;4786;51.270;4.456;2023-03-01T03:02:44;9.37;;;8.47;;
9496;SDS011;4786;51.270;4.456;2023-03-01T03:05:19;9.77;;;8.57;;
9496;SDS011;4786;51.270;4.456;2023-03-01T03:07:48;8.97;;;8.07;;
9496;SDS011;4786;51.270;4.456;2023-03-01T03:10:16;10.27;;;8.90;;
9496;SDS011;4786;51.270;4.456;2023-03-01T03:12:44;9.83;;;8.83;;
9496;SDS011;4786;51.270;4.456;2023-03-01T03:15:18;10.13;;;9.03;;
9496;SDS011;4786;51.270;4.456;2023-03-01T03:17:45;10.30;;;9.30;;
9496;SDS011;4786;51.270;4.456;2023-03-01T03:20:12;10.00;;;9.00;;
9496;SDS011;4786;51.270;4.456;2023-03-01T03:22:44;9.83;;;8.83;;
9496;SDS011;4786;51.270;4.456;2023-03-01T03:25:12;10.40;;;9.30;;
9496;SDS011;4786;51.270;4.456;2023-03-01T03:27:39;8.57;;;7.73;;
9496;SDS011;4786;51.270;4.456;2023-03-01T03:30:07;10.00;;;8.77;;
9496;SDS011;4786;51.270;4.456;2023-03-01T03:32:37;10.47;;;9.03;;
9496;SDS011;4786;51.270;4.456;2023-03-01T03:35:04;10.07;;;9.07;;
9496;SDS011;4786;51.270;4.456;2023-03-01T03:37:38;8.80;;;7.93;;
9496;SDS011;4786;51.270;4.456;2023-03-01T03:40:23;8.83;;;8.00;;
9496;SDS011;4786;51.270;4.456;2023-03-01T03:42:49;10.07;;;9.07;;
9496;SDS011;4786;51.270;4.456;2023-03-01T03:45:16;10.30;;;9.23;;
9496;SDS011;4786;51.270;4.456;2023-03-01T03:47:42;10.17;;;9.17;;
9496;SDS011;4786;51.270;4.456;2023-03-01T03:50:11;10.27;;;8.93;;
9496;SDS011;4786;51.270;4.456;2023-03-01T03:52:39;9.37;;;8.33;;
9496;SDS011;4786;51.270;4.456;2023-03-01T03:55:06;10.67;;;9.67;;
9496;SDS011;4786;51.270;4.456;2023-03-01T03:57:34;11.43;;;9.60;;
9496;SDS011;4786;51.270;4.456;2023-03-01T04:00:01;9.40;;;8.47;;
9496;SDS011;4786;51.270;4.456;2023-03-01T04:02:29;10.30;;;9.17;;
9496;SDS011;4786;51.270;4.456;2023-03-01T04:04:56;10.97;;;9.27;;
9496;SDS011;4786;51.270;4.456;2023-03-01T04:07:22;9.70;;;8.80;;
9496;SDS011;4786;51.270;4.456;2023-03-01T04:09:47;10.57;;;9.07;;
9496;SDS011;4786;51.270;4.456;2023-03-01T04:12:13;9.77;;;8.77;;
9496;SDS011;4786;51.270;4.456;2023-03-01T04:14:40;9.73;;;8.80;;
9496;SDS011;4786;51.270;4.456;2023-03-01T04:17:06;10.60;;;9.57;;
9496;SDS011;4786;51.270;4.456;2023-03-01T04:19:32;10.73;;;9.13;;
9496;SDS011;4786;51.270;4.456;2023-03-01T04:22:01;12.07;;;9.33;;
9496;SDS011;4786;51.270;4.456;2023-03-01T04:24:34;10.07;;;8.67;;
9496;SDS011;4786;51.270;4.456;2023-03-01T04:27:01;10.10;;;8.80;;
9496;SDS011;4786;51.270;4.456;2023-03-01T04:29:27;9.83;;;8.90;;
9496;SDS011;4786;51.270;4.456;2023-03-01T04:31:53;10.37;;;9.27;;
9496;SDS011;4786;51.270;4.456;2023-03-01T04:34:19;10.37;;;9.27;;
9496;SDS011;4786;51.270;4.456;2023-03-01T04:36:46;11.70;;;10.23;;
9496;SDS011;4786;51.270;4.456;2023-03-01T04:39:11;12.17;;;9.20;;
9496;SDS011;4786;51.270;4.456;2023-03-01T04:41:38;10.13;;;9.13;;
9496;SDS011;4786;51.270;4.456;2023-03-01T04:44:04;10.53;;;9.37;;
9496;SDS011;4786;51.270;4.456;2023-03-01T04:46:31;9.97;;;8.97;;
9496;SDS011;4786;51.270;4.456;2023-03-01T04:48:57;10.23;;;9.20;;
9496;SDS011;4786;51.270;4.456;2023-03-01T04:51:23;10.10;;;9.00;;
9496;SDS011;4786;51.270;4.456;2023-03-01T04:53:49;11.13;;;8.90;;
9496;SDS011;4786;51.270;4.456;2023-03-01T04:56:14;10.67;;;9.57;;
9496;SDS011;4786;51.270;4.456;2023-03-01T04:58:43;11.70;;;9.20;;
9496;SDS011;4786;51.270;4.456;2023-03-01T05:01:10;9.87;;;8.87;;
9496;SDS011;4786;51.270;4.456;2023-03-01T05:03:43;8.87;;;7.97;;
9496;SDS011;4786;51.270;4.456;2023-03-01T05:06:13;9.33;;;8.43;;
9496;SDS011;4786;51.270;4.456;2023-03-01T05:08:40;10.07;;;9.07;;
9496;SDS011;4786;51.270;4.456;2023-03-01T05:11:07;9.83;;;8.83;;
9496;SDS011;4786;51.270;4.456;2023-03-01T05:13:36;9.40;;;8.40;;
9496;SDS011;4786;51.270;4.456;2023-03-01T05:16:04;9.50;;;8.50;;
9496;SDS011;4786;51.270;4.456;2023-03-01T05:18:32;9.57;;;8.20;;
9496;SDS011;4786;51.270;4.456;2023-03-01T05:21:08;9.43;;;8.43;;
9496;SDS011;4786;51.270;4.456;2023-03-01T05:23:35;10.73;;;8.70;;
9496;SDS011;4786;51.270;4.456;2023-03-01T05:26:02;9.10;;;8.10;;
9496;SDS011;4786;51.270;4.456;2023-03-01T05:28:29;8.70;;;7.90;;
9496;SDS011;4786;51.270;4.456;2023-03-01T05:30:56;12.23;;;8.57;;
9496;SDS011;4786;51.270;4.456;2023-03-01T05:33:22;9.03;;;8.23;;
9496;SDS011;4786;51.270;4.456;2023-03-01T05:35:49;9.40;;;8.03;;
9496;SDS011;4786;51.270;4.456;2023-03-01T05:38:16;9.67;;;8.67;;
9496;SDS011;4786;51.270;4.456;2023-03-01T05:40:43;9.33;;;8.43;;
9496;SDS011;4786;51.270;4.456;2023-03-01T05:43:10;10.83;;;8.77;;
9496;SDS011;4786;51.270;4.456;2023-03-01T05:45:38;9.03;;;8.13;;
9496;SDS011;4786;51.270;4.456;2023-03-01T05:48:05;9.57;;;8.50;;
9496;SDS011;4786;51.270;4.456;2023-03-01T05:50:32;9.87;;;8.40;;
9496;SDS011;4786;51.270;4.456;2023-03-01T05:53:05;8.27;;;7.43;;
9496;SDS011;4786;51.270;4.456;2023-03-01T05:55:33;8.93;;;8.00;;
9496;SDS011;4786;51.270;4.456;2023-03-01T05:58:01;8.93;;;8.07;;
9496;SDS011;4786;51.270;4.456;2023-03-01T06:00:29;9.80;;;8.80;;
9496;SDS011;4786;51.270;4.456;2023-03-01T06:02:55;10.87;;;8.80;;
9496;SDS011;4786;51.270;4.456;2023-03-01T06:05:22;9.50;;;8.30;;
9496;SDS011;4786;51.270;4.456;2023-03-01T06:07:49;9.37;;;8.43;;
9496;SDS011;4786;51.270;4.456;2023-03-01T06:10:15;11.80;;;8.13;;
9496;SDS011;4786;51.270;4.456;2023-03-01T06:12:42;9.60;;;8.60;;
9496;SDS011;4786;51.270;4.456;2023-03-01T06:15:09;9.80;;;8.80;;
9496;SDS011;4786;51.270;4.456;2023-03-01T06:17:40;10.00;;;8.37;;
9496;SDS011;4786;51.270;4.456;2023-03-01T06:20:08;9.27;;;8.30;;
9496;SDS011;4786;51.270;4.456;2023-03-01T06:22:37;10.00;;;9.00;;
9496;SDS011;4786;51.270;4.456;2023-03-01T06:25:04;9.47;;;8.40;;
9496;SDS011;4786;51.270;4.456;2023-03-01T06:27:30;10.90;;;8.70;;
9496;SDS011;4786;51.270;4.456;2023-03-01T06:29:56;10.53;;;8.20;;
9496;SDS011;4786;51.270;4.456;2023-03-01T06:32:21;10.23;;;9.03;;
9496;SDS011;4786;51.270;4.456;2023-03-01T06:34:47;10.20;;;8.63;;
9496;SDS011;4786;51.270;4.456;2023-03-01T06:37:14;12.10;;;8.67;;
9496;SDS011;4786;51.270;4.456;2023-03-01T06:39:39;10.00;;;9.00;;
9496;SDS011;4786;51.270;4.456;2023-03-01T06:42:05;8.63;;;7.73;;
9496;SDS011;4786;51.270;4.456;2023-03-01T06:44:33;10.00;;;8.87;;
9496;SDS011;4786;51.270;4.456;2023-03-01T06:46:59;8.97;;;8.07;;
9496;SDS011;4786;51.270;4.456;2023-03-01T06:49:25;9.17;;;8.27;;
9496;SDS011;4786;51.270;4.456;2023-03-01T06:51:52;8.93;;;8.00;;
9496;SDS011;4786;51.270;4.456;2023-03-01T06:54:18;8.83;;;8.03;;
9496;SDS011;4786;51.270;4.456;2023-03-01T06:56:47;9.03;;;7.93;;
9496;SDS011;4786;51.270;4.456;2023-03-01T06:59:14;9.90;;;8.90;;
9496;SDS011;4786;51.270;4.456;2023-03-01T07:01:40;10.03;;;8.93;;
9496;SDS011;4786;51.270;4.456;2023-03-01T07:04:06;8.33;;;7.53;;
9496;SDS011;4786;51.270;4.456;2023-03-01T07:06:33;10.67;;;9.57;;
9496;SDS011;4786;51.270;4.456;2023-03-01T07:08:59;10.43;;;9.10;;
9496;SDS011;4786;51.270;4.456;2023-03-01T07:11:24;10.87;;;9.40;;
9496;SDS011;4786;51.270;4.456;2023-03-01T07:13:50;9.57;;;8.57;;
9496;SDS011;4786;51.270;4.456;2023-03-01T07:16:16;11.90;;;9.00;;
9496;SDS011;4786;51.270;4.456;2023-03-01T07:18:45;9.57;;;8.63;;
9496;SDS011;4786;51.270;4.456;2023-03-01T07:21:12;10.07;;;8.73;;
9496;SDS011;4786;51.270;4.456;2023-03-01T07:23:39;9.70;;;8.70;;
9496;SDS011;4786;51.270;4.456;2023-03-01T07:26:05;9.60;;;8.60;;
9496;SDS011;4786;51.270;4.456;2023-03-01T07:28:31;9.90;;;8.57;;
9496;SDS011;4786;51.270;4.456;2023-03-01T07:31:03;10.07;;;9.03;;
9496;SDS011;4786;51.270;4.456;2023-03-01T07:33:30;12.17;;;9.73;;
9496;SDS011;4786;51.270;4.456;2023-03-01T07:36:00;11.37;;;8.97;;
9496;SDS011;4786;51.270;4.456;2023-03-01T07:38:27;11.27;;;8.57;;
9496;SDS011;4786;51.270;4.456;2023-03-01T07:40:57;12.03;;;9.30;;
9496;SDS011;4786;51.270;4.456;2023-03-01T07:43:27;12.77;;;9.27;;
9496;SDS011;4786;51.270;4.456;2023-03-01T07:45:54;11.80;;;8.57;;
9496;SDS011;4786;51.270;4.456;2023-03-01T07:48:22;10.03;;;8.87;;
9496;SDS011;4786;51.270;4.456;2023-03-01T07:50:49;9.90;;;8.67;;
9496;SDS011;4786;51.270;4.456;2023-03-01T07:53:14;10.30;;;8.53;;
9496;SDS011;4786;51.270;4.456;2023-03-01T07:55:40;11.17;;;8.10;;
9496;SDS011;4786;51.270;4.456;2023-03-01T07:58:06;9.73;;;8.73;;
9496;SDS011;4786;51.270;4.456;2023-03-01T08:00:32;9.53;;;8.50;;
9496;SDS011;4786;51.270;4.456;2023-03-01T08:03:01;10.07;;;8.90;;
9496;SDS011;4786;51.270;4.456;2023-03-01T08:05:27;11.90;;;8.63;;
9496;SDS011;4786;51.270;4.456;2023-03-01T08:07:54;10.93;;;8.80;;
9496;SDS011;4786;51.270;4.456;2023-03-01T08:10:19;12.47;;;8.03;;
9496;SDS011;4786;51.270;4.456;2023-03-01T08:12:46;11.47;;;7.30;;
9496;SDS011;4786;51.270;4.456;2023-03-01T08:15:11;9.53;;;7.03;;
9496;SDS011;4786;51.270;4.456;2023-03-01T08:17:37;7.83;;;7.07;;
9496;SDS011;4786;51.270;4.456;2023-03-01T08:20:03;7.73;;;6.93;;
9496;SDS011;4786;51.270;4.456;2023-03-01T08:22:31;8.00;;;7.13;;
9496;SDS011;4786;51.270;4.456;2023-03-01T08:24:56;9.40;;;6.80;;
9496;SDS011;4786;51.270;4.456;2023-03-01T08:27:22;9.73;;;7.37;;
9496;SDS011;4786;51.270;4.456;2023-03-01T08:29:48;9.13;;;7.40;;
9496;SDS011;4786;51.270;4.456;2023-03-01T08:32:14;6.80;;;6.10;;
9496;SDS011;4786;51.270;4.456;2023-03-01T08:34:40;9.23;;;7.73;;
9496;SDS011;4786;51.270;4.456;2023-03-01T08:37:06;7.83;;;7.03;;
9496;SDS011;4786;51.270;4.456;2023-03-01T08:39:32;8.63;;;7.67;;
9496;SDS011;4786;51.270;4.456;2023-03-01T08:41:58;8.43;;;6.63;;
9496;SDS011;4786;51.270;4.456;2023-03-01T08:44:24;8.03;;;7.07;;
9496;SDS011;4786;51.270;4.456;2023-03-01T08:46:50;7.70;;;6.90;;
9496;SDS011;4786;51.270;4.456;2023-03-01T08:49:18;7.43;;;6.73;;
9496;SDS011;4786;51.270;4.456;2023-03-01T08:51:45;7.80;;;7.00;;
9496;SDS011;4786;51.270;4.456;2023-03-01T08:54:12;7.97;;;6.93;;
9496;SDS011;4786;51.270;4.456;2023-03-01T08:56:44;10.10;;;6.93;;
9496;SDS011;4786;51.270;4.456;2023-03-01T08:59:11;10.53;;;7.77;;
9496;SDS011;4786;51.270;4.456;2023-03-01T09:01:38;9.50;;;7.17;;
9496;SDS011;4786;51.270;4.456;2023-03-01T09:04:05;7.87;;;7.07;;
9496;SDS011;4786;51.270;4.456;2023-03-01T09:06:31;9.00;;;7.80;;
9496;SDS011;4786;51.270;4.456;2023-03-01T09:08:59;9.10;;;7.83;;
9496;SDS011;4786;51.270;4.456;2023-03-01T09:11:28;9.57;;;7.73;;
9496;SDS011;4786;51.270;4.456;2023-03-01T09:13:54;8.67;;;7.20;;
9496;SDS011;4786;51.270;4.456;2023-03-01T09:16:21;8.27;;;7.47;;
9496;SDS011;4786;51.270;4.456;2023-03-01T09:18:49;8.60;;;7.43;;
9496;SDS011;4786;51.270;4.456;2023-03-01T09:21:16;9.77;;;7.53;;
9496;SDS011;4786;51.270;4.456;2023-03-01T09:23:44;8.67;;;7.77;;
9496;SDS011;4786;51.270;4.456;2023-03-01T09:26:12;8.60;;;7.30;;
9496;SDS011;4786;51.270;4.456;2023-03-01T09:28:44;10.10;;;7.40;;
9496;SDS011;4786;51.270;4.456;2023-03-01T09:31:11;9.27;;;7.87;;
9496;SDS011;4786;51.270;4.456;2023-03-01T09:33:39;10.93;;;8.23;;
9496;SDS011;4786;51.270;4.456;2023-03-01T09:36:06;9.03;;;8.13;;
9496;SDS011;4786;51.270;4.456;2023-03-01T09:38:37;9.30;;;8.17;;
9496;SDS011;4786;51.270;4.456;2023-03-01T09:41:08;9.27;;;7.67;;
9496;SDS011;4786;51.270;4.456;2023-03-01T09:43:54;8.60;;;7.70;;
9496;SDS011;4786;51.270;4.456;2023-03-01T09:46:24;8.90;;;7.60;;
9496;SDS011;4786;51.270;4.456;2023-03-01T09:48:55;9.30;;;8.17;;
9496;SDS011;4786;51.270;4.456;2023-03-01T09:51:27;9.93;;;8.13;;
9496;SDS011;4786;51.270;4.456;2023-03-01T09:53:56;8.67;;;7.77;;
9496;SDS011;4786;51.270;4.456;2023-03-01T09:59:03;9.40;;;8.20;;
9496;SDS011;4786;51.270;4.456;2023-03-01T10:01:58;9.07;;;8.07;;
9496;SDS011;4786;51.270;4.456;2023-03-01T10:04:35;9.50;;;8.50;;
9496;SDS011;4786;51.270;4.456;2023-03-01T10:09:42;9.43;;;7.77;;
9496;SDS011;4786;51.270;4.456;2023-03-01T10:12:15;10.00;;;7.83;;
9496;SDS011;4786;51.270;4.456;2023-03-01T10:20:16;8.80;;;7.77;;
9496;SDS011;4786;51.270;4.456;2023-03-01T10:22:48;8.80;;;7.60;;
9496;SDS011;4786;51.270;4.456;2023-03-01T10:26:05;8.00;;;6.90;;
9496;SDS011;4786;51.270;4.456;2023-03-01T10:28:10;9.17;;;7.90;;
9496;SDS011;4786;51.270;4.456;2023-03-01T10:30:50;9.03;;;8.13;;
9496;SDS011;4786;51.270;4.456;2023-03-01T10:33:17;8.03;;;7.23;;
9496;SDS011;4786;51.270;4.456;2023-03-01T10:35:49;9.13;;;6.90;;
9496;SDS011;4786;51.270;4.456;2023-03-01T10:38:15;8.67;;;6.63;;
9496;SDS011;4786;51.270;4.456;2023-03-01T10:41:06;8.30;;;7.43;;
9496;SDS011;4786;51.270;4.456;2023-03-01T10:43:51;9.93;;;7.37;;
9496;SDS011;4786;51.270;4.456;2023-03-01T10:46:26;10.83;;;7.30;;
9496;SDS011;4786;51.270;4.456;2023-03-01T10:51:47;7.80;;;6.83;;
9496;SDS011;4786;51.270;4.456;2023-03-01T10:54:27;7.27;;;6.57;;
9496;SDS011;4786;51.270;4.456;2023-03-01T10:56:55;7.03;;;6.37;;
9496;SDS011;4786;51.270;4.456;2023-03-01T10:59:31;7.80;;;7.10;;
9496;SDS011;4786;51.270;4.456;2023-03-01T11:02:03;8.30;;;7.07;;
9496;SDS011;4786;51.270;4.456;2023-03-01T11:04:39;7.53;;;6.77;;
9496;SDS011;4786;51.270;4.456;2023-03-01T11:07:04;7.63;;;6.90;;
9496;SDS011;4786;51.270;4.456;2023-03-01T11:09:31;9.03;;;6.87;;
9496;SDS011;4786;51.270;4.456;2023-03-01T11:12:05;9.33;;;6.80;;
9496;SDS011;4786;51.270;4.456;2023-03-01T11:14:39;9.20;;;7.67;;
9496;SDS011;4786;51.270;4.456;2023-03-01T11:22:47;10.87;;;6.77;;
9496;SDS011;4786;51.270;4.456;2023-03-01T11:25:21;7.23;;;6.53;;
9496;SDS011;4786;51.270;4.456;2023-03-01T11:27:53;7.23;;;6.53;;
9496;SDS011;4786;51.270;4.456;2023-03-01T11:30:21;8.53;;;6.80;;
9496;SDS011;4786;51.270;4.456;2023-03-01T11:33:03;8.60;;;6.87;;
9496;SDS011;4786;51.270;4.456;2023-03-01T11:36:00;7.23;;;6.17;;
9496;SDS011;4786;51.270;4.456;2023-03-01T11:38:39;7.80;;;6.90;;
9496;SDS011;4786;51.270;4.456;2023-03-01T11:41:11;6.90;;;6.23;;
9496;SDS011;4786;51.270;4.456;2023-03-01T11:44:02;7.03;;;6.23;;
9496;SDS011;4786;51.270;4.456;2023-03-01T11:51:38;7.90;;;6.33;;
9496;SDS011;4786;51.270;4.456;2023-03-01T11:54:30;9.63;;;6.90;;
9496;SDS011;4786;51.270;4.456;2023-03-01T12:08:01;7.97;;;6.90;;
9496;SDS011;4786;51.270;4.456;2023-03-01T12:10:54;8.70;;;7.40;;
9496;SDS011;4786;51.270;4.456;2023-03-01T12:26:38;8.57;;;6.67;;
9496;SDS011;4786;51.270;4.456;2023-03-01T12:29:08;10.63;;;7.10;;
9496;SDS011;4786;51.270;4.456;2023-03-01T12:32:19;7.27;;;6.57;;
9496;SDS011;4786;51.270;4.456;2023-03-01T12:48:48;7.57;;;6.37;;
9496;SDS011;4786;51.270;4.456;2023-03-01T12:51:30;8.60;;;6.50;;
9496;SDS011;4786;51.270;4.456;2023-03-01T12:53:58;10.83;;;6.90;;
9496;SDS011;4786;51.270;4.456;2023-03-01T12:56:32;7.73;;;6.93;;
9496;SDS011;4786;51.270;4.456;2023-03-01T13:01:36;9.30;;;6.73;;
9496;SDS011;4786;51.270;4.456;2023-03-01T13:04:12;8.33;;;6.70;;
9496;SDS011;4786;51.270;4.456;2023-03-01T13:09:26;9.33;;;6.73;;
9496;SDS011;4786;51.270;4.456;2023-03-01T13:17:47;7.93;;;7.13;;
9496;SDS011;4786;51.270;4.456;2023-03-01T13:20:23;8.20;;;6.63;;
9496;SDS011;4786;51.270;4.456;2023-03-01T13:26:02;8.60;;;7.10;;
9496;SDS011;4786;51.270;4.456;2023-03-01T13:30:57;7.27;;;6.57;;
9496;SDS011;4786;51.270;4.456;2023-03-01T13:35:56;7.60;;;6.90;;
9496;SDS011;4786;51.270;4.456;2023-03-01T13:38:44;7.97;;;7.17;;
9496;SDS011;4786;51.270;4.456;2023-03-01T13:46:45;9.43;;;7.10;;
9496;SDS011;4786;51.270;4.456;2023-03-01T13:49:16;7.27;;;6.57;;
9496;SDS011;4786;51.270;4.456;2023-03-01T13:51:48;7.10;;;6.40;;
9496;SDS011;4786;51.270;4.456;2023-03-01T13:54:15;10.47;;;6.60;;
9496;SDS011;4786;51.270;4.456;2023-03-01T13:56:45;9.07;;;7.27;;
9496;SDS011;4786;51.270;4.456;2023-03-01T13:59:13;7.73;;;6.83;;
9496;SDS011;4786;51.270;4.456;2023-03-01T14:01:40;7.23;;;6.47;;
9496;SDS011;4786;51.270;4.456;2023-03-01T14:04:18;7.50;;;6.80;;
9496;SDS011;4786;51.270;4.456;2023-03-01T14:06:46;7.97;;;7.17;;
9496;SDS011;4786;51.270;4.456;2023-03-01T14:14:35;7.57;;;6.40;;
9496;SDS011;4786;51.270;4.456;2023-03-01T14:17:26;7.30;;;6.60;;
9496;SDS011;4786;51.270;4.456;2023-03-01T14:20:23;8.27;;;7.03;;
9496;SDS011;4786;51.270;4.456;2023-03-01T14:22:57;8.87;;;7.10;;
9496;SDS011;4786;51.270;4.456;2023-03-01T14:25:32;6.87;;;6.17;;
9496;SDS011;4786;51.270;4.456;2023-03-01T14:28:18;9.73;;;6.87;;
9496;SDS011;4786;51.270;4.456;2023-03-01T14:30:57;10.47;;;7.97;;
9496;SDS011;4786;51.270;4.456;2023-03-01T14:36:10;8.17;;;7.27;;
9496;SDS011;4786;51.270;4.456;2023-03-01T14:38:39;12.87;;;7.67;;
9496;SDS011;4786;51.270;4.456;2023-03-01T14:41:10;7.63;;;6.77;;
9496;SDS011;4786;51.270;4.456;2023-03-01T14:44:02;7.60;;;6.73;;
9496;SDS011;4786;51.270;4.456;2023-03-01T14:46:38;9.17;;;6.90;;
9496;SDS011;4786;51.270;4.456;2023-03-01T14:49:16;9.10;;;6.40;;
9496;SDS011;4786;51.270;4.456;2023-03-01T14:51:52;9.13;;;6.97;;
9496;SDS011;4786;51.270;4.456;2023-03-01T14:54:27;9.03;;;6.70;;
9496;SDS011;4786;51.270;4.456;2023-03-01T14:57:00;7.37;;;6.67;;
9496;SDS011;4786;51.270;4.456;2023-03-01T14:59:27;8.57;;;6.93;;
9496;SDS011;4786;51.270;4.456;2023-03-01T15:01:55;8.20;;;7.30;;
9496;SDS011;4786;51.270;4.456;2023-03-01T15:04:23;7.87;;;7.03;;
9496;SDS011;4786;51.270;4.456;2023-03-01T15:06:52;12.90;;;7.57;;
9496;SDS011;4786;51.270;4.456;2023-03-01T15:09:20;8.23;;;7.07;;
9496;SDS011;4786;51.270;4.456;2023-03-01T15:11:47;8.37;;;7.20;;
9496;SDS011;4786;51.270;4.456;2023-03-01T15:20:04;7.80;;;7.00;;
9496;SDS011;4786;51.270;4.456;2023-03-01T15:22:43;8.10;;;7.13;;
9496;SDS011;4786;51.270;4.456;2023-03-01T15:25:16;9.87;;;7.07;;
9496;SDS011;4786;51.270;4.456;2023-03-01T15:27:48;9.50;;;7.30;;
9496;SDS011;4786;51.270;4.456;2023-03-01T15:30:21;8.87;;;6.93;;
9496;SDS011;4786;51.270;4.456;2023-03-01T15:33:16;7.90;;;7.10;;
9496;SDS011;4786;51.270;4.456;2023-03-01T15:35:46;7.77;;;6.77;;
9496;SDS011;4786;51.270;4.456;2023-03-01T15:40:52;7.80;;;7.00;;
9496;SDS011;4786;51.270;4.456;2023-03-01T15:46:17;8.23;;;7.20;;
9496;SDS011;4786;51.270;4.456;2023-03-01T15:48:48;10.13;;;7.37;;
9496;SDS011;4786;51.270;4.456;2023-03-01T15:51:22;8.53;;;7.63;;
9496;SDS011;4786;51.270;4.456;2023-03-01T15:53:54;8.40;;;7.50;;
9496;SDS011;4786;51.270;4.456;2023-03-01T15:56:21;8.57;;;7.40;;
9496;SDS011;4786;51.270;4.456;2023-03-01T15:58:47;8.93;;;7.47;;
9496;SDS011;4786;51.270;4.456;2023-03-01T16:01:14;8.43;;;7.07;;
9496;SDS011;4786;51.270;4.456;2023-03-01T16:03:45;8.67;;;7.47;;
9496;SDS011;4786;51.270;4.456;2023-03-01T16:06:10;8.83;;;7.17;;
9496;SDS011;4786;51.270;4.456;2023-03-01T16:08:37;10.03;;;7.40;;
9496;SDS011;4786;51.270;4.456;2023-03-01T16:11:09;7.97;;;6.60;;
9496;SDS011;4786;51.270;4.456;2023-03-01T16:13:40;7.60;;;6.90;;
9496;SDS011;4786;51.270;4.456;2023-03-01T16:16:06;9.20;;;7.10;;
9496;SDS011;4786;51.270;4.456;2023-03-01T16:18:32;8.30;;;6.77;;
9496;SDS011;4786;51.270;4.456;2023-03-01T16:20:58;8.10;;;6.97;;
9496;SDS011;4786;51.270;4.456;2023-03-01T16:23:24;8.63;;;7.53;;
9496;SDS011;4786;51.270;4.456;2023-03-01T16:25:50;7.00;;;6.30;;
9496;SDS011;4786;51.270;4.456;2023-03-01T16:28:16;9.30;;;6.90;;
9496;SDS011;4786;51.270;4.456;2023-03-01T16:30:45;8.17;;;7.37;;
9496;SDS011;4786;51.270;4.456;2023-03-01T16:33:12;8.60;;;7.30;;
9496;SDS011;4786;51.270;4.456;2023-03-01T16:35:39;8.80;;;7.90;;
9496;SDS011;4786;51.270;4.456;2023-03-01T16:38:05;8.37;;;7.37;;
9496;SDS011;4786;51.270;4.456;2023-03-01T16:40:31;8.23;;;7.10;;
9496;SDS011;4786;51.270;4.456;2023-03-01T16:42:58;9.60;;;6.53;;
9496;SDS011;4786;51.270;4.456;2023-03-01T16:45:25;8.80;;;7.40;;
9496;SDS011;4786;51.270;4.456;2023-03-01T16:47:52;8.53;;;7.30;;
9496;SDS011;4786;51.270;4.456;2023-03-01T16:50:19;9.13;;;7.60;;
9496;SDS011;4786;51.270;4.456;2023-03-01T16:52:44;8.87;;;7.27;;
9496;SDS011;4786;51.270;4.456;2023-03-01T16:55:10;8.17;;;7.20;;
9496;SDS011;4786;51.270;4.456;2023-03-01T16:57:37;7.87;;;6.53;;
9496;SDS011;4786;51.270;4.456;2023-03-01T17:00:07;7.63;;;6.83;;
9496;SDS011;4786;51.270;4.456;2023-03-01T17:02:35;7.97;;;6.93;;
9496;SDS011;4786;51.270;4.456;2023-03-01T17:05:01;8.10;;;6.97;;
9496;SDS011;4786;51.270;4.456;2023-03-01T17:07:28;7.93;;;7.13;;
9496;SDS011;4786;51.270;4.456;2023-03-01T17:09:58;9.57;;;7.17;;
9496;SDS011;4786;51.270;4.456;2023-03-01T17:12:28;9.53;;;7.20;;
9496;SDS011;4786;51.270;4.456;2023-03-01T17:14:54;10.80;;;7.60;;
9496;SDS011;4786;51.270;4.456;2023-03-01T17:17:21;8.90;;;8.00;;
9496;SDS011;4786;51.270;4.456;2023-03-01T17:19:47;10.37;;;7.97;;
9496;SDS011;4786;51.270;4.456;2023-03-01T17:22:13;9.07;;;8.10;;
9496;SDS011;4786;51.270;4.456;2023-03-01T17:24:40;9.00;;;8.03;;
9496;SDS011;4786;51.270;4.456;2023-03-01T17:27:06;12.03;;;8.50;;